sensor_id;sensor_type;location;lat;lon;timestamp;P1;durP1;ratioP1;P2;durP2;ratioP2
69185;SDS011;56298;49.246;9.410;2024-02-23T00:01:47;2.13;;;0.20;;
69185;SDS011;56298;49.246;9.410;2024-02-23T00:04:12;2.67;;;0.30;;
69185;SDS011;56298;49.246;9.410;2024-02-23T00:06:38;3.10;;;0.30;;
69185;SDS011;56298;49.246;9.410;2024-02-23T00:09:03;1.77;;;0.27;;
69185;SDS011;56298;49.246;9.410;2024-02-23T00:11:29;2.50;;;0.27;;
69185;SDS011;56298;49.246;9.410;2024-02-23T00:13:55;2.75;;;0.40;;
69185;SDS011;56298;49.246;9.410;2024-02-23T00:16:21;2.23;;;0.20;;
69185;SDS011;56298;49.246;9.410;2024-02-23T00:18:46;2.13;;;0.30;;
69185;SDS011;56298;49.246;9.410;2024-02-23T00:21:11;2.87;;;0.30;;
69185;SDS011;56298;49.246;9.410;2024-02-23T00:23:36;2.90;;;0.40;;
69185;SDS011;56298;49.246;9.410;2024-02-23T00:26:02;2.33;;;0.30;;
69185;SDS011;56298;49.246;9.410;2024-02-23T00:28:27;3.08;;;0.40;;
69185;SDS011;56298;49.246;9.410;2024-02-23T00:30:53;3.00;;;0.40;;
69185;SDS011;56298;49.246;9.410;2024-02-23T00:33:18;2.60;;;0.37;;
69185;SDS011;56298;49.246;9.410;2024-02-23T00:35:43;3.17;;;0.30;;
69185;SDS011;56298;49.246;9.410;2024-02-23T00:38:09;4.47;;;0.60;;
69185;SDS011;56298;49.246;9.410;2024-02-23T00:40:34;3.00;;;0.30;;
69185;SDS011;56298;49.246;9.410;2024-02-23T00:42:59;2.27;;;0.30;;
69185;SDS011;56298;49.246;9.410;2024-02-23T00:45:28;3.80;;;0.30;;
69185;SDS011;56298;49.246;9.410;2024-02-23T00:47:53;2.83;;;0.30;;
69185;SDS011;56298;49.246;9.410;2024-02-23T00:50:18;2.50;;;0.30;;
69185;SDS011;56298;49.246;9.410;2024-02-23T00:52:44;2.67;;;0.40;;
69185;SDS011;56298;49.246;9.410;2024-02-23T00:55:09;2.97;;;0.40;;
69185;SDS011;56298;49.246;9.410;2024-02-23T00:57:35;4.00;;;0.50;;
69185;SDS011;56298;49.246;9.410;2024-02-23T01:00:01;3.88;;;0.40;;
69185;SDS011;56298;49.246;9.410;2024-02-23T01:02:29;2.53;;;0.40;;
69185;SDS011;56298;49.246;9.410;2024-02-23T01:04:55;3.50;;;0.40;;
69185;SDS011;56298;49.246;9.410;2024-02-23T01:07:22;3.40;;;0.32;;
69185;SDS011;56298;49.246;9.410;2024-02-23T01:09:47;4.18;;;0.40;;
69185;SDS011;56298;49.246;9.410;2024-02-23T01:12:13;3.93;;;0.40;;
69185;SDS011;56298;49.246;9.410;2024-02-23T01:14:38;5.10;;;0.50;;
69185;SDS011;56298;49.246;9.410;2024-02-23T01:17:03;3.70;;;0.40;;
69185;SDS011;56298;49.246;9.410;2024-02-23T01:19:28;3.67;;;0.50;;
69185;SDS011;56298;49.246;9.410;2024-02-23T01:21:53;2.53;;;0.40;;
69185;SDS011;56298;49.246;9.410;2024-02-23T01:24:24;5.75;;;0.63;;
69185;SDS011;56298;49.246;9.410;2024-02-23T01:26:52;4.47;;;0.47;;
69185;SDS011;56298;49.246;9.410;2024-02-23T01:29:18;6.20;;;0.55;;
69185;SDS011;56298;49.246;9.410;2024-02-23T01:31:43;3.73;;;0.50;;
69185;SDS011;56298;49.246;9.410;2024-02-23T01:34:08;4.50;;;0.50;;
69185;SDS011;56298;49.246;9.410;2024-02-23T01:36:34;4.27;;;0.63;;
69185;SDS011;56298;49.246;9.410;2024-02-23T01:38:59;4.37;;;0.50;;
69185;SDS011;56298;49.246;9.410;2024-02-23T01:41:24;4.47;;;0.60;;
69185;SDS011;56298;49.246;9.410;2024-02-23T01:43:49;6.20;;;0.53;;
69185;SDS011;56298;49.246;9.410;2024-02-23T01:46:15;4.47;;;0.60;;
69185;SDS011;56298;49.246;9.410;2024-02-23T01:48:43;4.73;;;0.60;;
69185;SDS011;56298;49.246;9.410;2024-02-23T01:51:09;8.55;;;0.82;;
69185;SDS011;56298;49.246;9.410;2024-02-23T01:53:34;6.73;;;0.60;;
69185;SDS011;56298;49.246;9.410;2024-02-23T01:55:59;3.07;;;0.50;;
69185;SDS011;56298;49.246;9.410;2024-02-23T01:58:25;5.50;;;0.47;;
69185;SDS011;56298;49.246;9.410;2024-02-23T02:00:50;6.27;;;0.60;;
69185;SDS011;56298;49.246;9.410;2024-02-23T02:03:15;3.57;;;0.50;;
69185;SDS011;56298;49.246;9.410;2024-02-23T02:05:41;4.57;;;0.50;;
69185;SDS011;56298;49.246;9.410;2024-02-23T02:08:06;5.63;;;0.60;;
69185;SDS011;56298;49.246;9.410;2024-02-23T02:10:32;4.28;;;0.52;;
69185;SDS011;56298;49.246;9.410;2024-02-23T02:13:04;5.50;;;0.80;;
69185;SDS011;56298;49.246;9.410;2024-02-23T02:15:30;3.92;;;0.40;;
69185;SDS011;56298;49.246;9.410;2024-02-23T02:17:55;5.30;;;0.50;;
69185;SDS011;56298;49.246;9.410;2024-02-23T02:20:23;5.33;;;0.60;;
69185;SDS011;56298;49.246;9.410;2024-02-23T02:22:50;5.28;;;0.55;;
69185;SDS011;56298;49.246;9.410;2024-02-23T02:25:15;4.20;;;0.50;;
69185;SDS011;56298;49.246;9.410;2024-02-23T02:27:41;5.43;;;0.50;;
69185;SDS011;56298;49.246;9.410;2024-02-23T02:30:06;3.73;;;0.57;;
69185;SDS011;56298;49.246;9.410;2024-02-23T02:32:32;5.78;;;0.65;;
69185;SDS011;56298;49.246;9.410;2024-02-23T02:34:57;8.50;;;0.70;;
69185;SDS011;56298;49.246;9.410;2024-02-23T02:37:22;4.43;;;0.53;;
69185;SDS011;56298;49.246;9.410;2024-02-23T02:39:47;4.73;;;0.50;;
69185;SDS011;56298;49.246;9.410;2024-02-23T02:42:13;3.93;;;0.60;;
69185;SDS011;56298;49.246;9.410;2024-02-23T02:44:38;6.73;;;0.50;;
69185;SDS011;56298;49.246;9.410;2024-02-23T02:47:03;4.00;;;0.40;;
69185;SDS011;56298;49.246;9.410;2024-02-23T02:49:29;4.23;;;0.53;;
69185;SDS011;56298;49.246;9.410;2024-02-23T02:51:54;3.23;;;0.50;;
69185;SDS011;56298;49.246;9.410;2024-02-23T02:54:19;5.10;;;0.50;;
69185;SDS011;56298;49.246;9.410;2024-02-23T02:56:45;5.60;;;0.50;;
69185;SDS011;56298;49.246;9.410;2024-02-23T02:59:12;5.57;;;0.70;;
69185;SDS011;56298;49.246;9.410;2024-02-23T03:01:38;4.90;;;0.60;;
69185;SDS011;56298;49.246;9.410;2024-02-23T03:04:04;4.30;;;0.50;;
69185;SDS011;56298;49.246;9.410;2024-02-23T03:06:29;5.03;;;0.50;;
69185;SDS011;56298;49.246;9.410;2024-02-23T03:08:54;4.33;;;0.40;;
69185;SDS011;56298;49.246;9.410;2024-02-23T03:11:20;4.13;;;0.40;;
69185;SDS011;56298;49.246;9.410;2024-02-23T03:13:45;5.57;;;0.60;;
69185;SDS011;56298;49.246;9.410;2024-02-23T03:16:20;4.80;;;0.50;;
69185;SDS011;56298;49.246;9.410;2024-02-23T03:18:46;6.88;;;0.60;;
69185;SDS011;56298;49.246;9.410;2024-02-23T03:21:11;4.72;;;0.50;;
69185;SDS011;56298;49.246;9.410;2024-02-23T03:23:38;6.28;;;0.47;;
69185;SDS011;56298;49.246;9.410;2024-02-23T03:26:03;5.03;;;0.60;;
69185;SDS011;56298;49.246;9.410;2024-02-23T03:28:28;5.97;;;0.50;;
69185;SDS011;56298;49.246;9.410;2024-02-23T03:30:54;4.37;;;0.40;;
69185;SDS011;56298;49.246;9.410;2024-02-23T03:33:19;4.03;;;0.40;;
69185;SDS011;56298;49.246;9.410;2024-02-23T03:35:44;4.03;;;0.40;;
69185;SDS011;56298;49.246;9.410;2024-02-23T03:38:10;6.10;;;0.60;;
69185;SDS011;56298;49.246;9.410;2024-02-23T03:40:35;3.67;;;0.50;;
69185;SDS011;56298;49.246;9.410;2024-02-23T03:43:01;5.20;;;0.50;;
69185;SDS011;56298;49.246;9.410;2024-02-23T03:45:27;3.78;;;0.40;;
69185;SDS011;56298;49.246;9.410;2024-02-23T03:47:52;5.27;;;0.57;;
69185;SDS011;56298;49.246;9.410;2024-02-23T03:50:17;4.73;;;0.50;;
69185;SDS011;56298;49.246;9.410;2024-02-23T03:52:42;4.33;;;0.50;;
69185;SDS011;56298;49.246;9.410;2024-02-23T03:55:08;4.07;;;0.40;;
69185;SDS011;56298;49.246;9.410;2024-02-23T03:57:33;4.57;;;0.50;;
69185;SDS011;56298;49.246;9.410;2024-02-23T03:59:58;3.67;;;0.40;;
69185;SDS011;56298;49.246;9.410;2024-02-23T04:02:24;4.20;;;0.40;;
69185;SDS011;56298;49.246;9.410;2024-02-23T04:04:49;3.63;;;0.40;;
69185;SDS011;56298;49.246;9.410;2024-02-23T04:07:15;4.60;;;0.40;;
69185;SDS011;56298;49.246;9.410;2024-02-23T04:09:40;4.10;;;0.40;;
69185;SDS011;56298;49.246;9.410;2024-02-23T04:12:05;4.87;;;0.40;;
69185;SDS011;56298;49.246;9.410;2024-02-23T04:14:32;4.03;;;0.43;;
69185;SDS011;56298;49.246;9.410;2024-02-23T04:17:01;4.28;;;0.47;;
69185;SDS011;56298;49.246;9.410;2024-02-23T04:19:26;5.23;;;0.60;;
69185;SDS011;56298;49.246;9.410;2024-02-23T04:21:52;4.87;;;0.43;;
69185;SDS011;56298;49.246;9.410;2024-02-23T04:24:17;3.57;;;0.40;;
69185;SDS011;56298;49.246;9.410;2024-02-23T04:26:42;4.57;;;0.50;;
69185;SDS011;56298;49.246;9.410;2024-02-23T04:29:07;4.53;;;0.40;;
69185;SDS011;56298;49.246;9.410;2024-02-23T04:31:35;4.78;;;0.40;;
69185;SDS011;56298;49.246;9.410;2024-02-23T04:34:01;2.70;;;0.40;;
69185;SDS011;56298;49.246;9.410;2024-02-23T04:36:26;3.23;;;0.30;;
69185;SDS011;56298;49.246;9.410;2024-02-23T04:38:52;5.13;;;0.50;;
69185;SDS011;56298;49.246;9.410;2024-02-23T04:41:19;4.43;;;0.50;;
69185;SDS011;56298;49.246;9.410;2024-02-23T04:43:45;4.03;;;0.50;;
69185;SDS011;56298;49.246;9.410;2024-02-23T04:46:10;4.67;;;0.50;;
69185;SDS011;56298;49.246;9.410;2024-02-23T04:48:35;4.13;;;0.40;;
69185;SDS011;56298;49.246;9.410;2024-02-23T04:51:01;4.13;;;0.40;;
69185;SDS011;56298;49.246;9.410;2024-02-23T04:53:26;5.30;;;0.40;;
69185;SDS011;56298;49.246;9.410;2024-02-23T04:55:51;4.33;;;0.50;;
69185;SDS011;56298;49.246;9.410;2024-02-23T04:58:17;5.70;;;0.50;;
69185;SDS011;56298;49.246;9.410;2024-02-23T05:00:42;4.55;;;0.50;;
69185;SDS011;56298;49.246;9.410;2024-02-23T05:03:07;4.60;;;0.60;;
69185;SDS011;56298;49.246;9.410;2024-02-23T05:05:35;3.27;;;0.40;;
69185;SDS011;56298;49.246;9.410;2024-02-23T05:08:00;7.70;;;0.50;;
69185;SDS011;56298;49.246;9.410;2024-02-23T05:10:25;4.07;;;0.60;;
69185;SDS011;56298;49.246;9.410;2024-02-23T05:12:50;4.70;;;0.50;;
69185;SDS011;56298;49.246;9.410;2024-02-23T05:15:16;4.43;;;0.50;;
69185;SDS011;56298;49.246;9.410;2024-02-23T05:17:41;4.30;;;0.50;;
69185;SDS011;56298;49.246;9.410;2024-02-23T05:20:07;4.93;;;0.50;;
69185;SDS011;56298;49.246;9.410;2024-02-23T05:22:35;4.25;;;0.50;;
69185;SDS011;56298;49.246;9.410;2024-02-23T05:25:03;3.10;;;0.40;;
69185;SDS011;56298;49.246;9.410;2024-02-23T05:27:30;4.68;;;0.50;;
69185;SDS011;56298;49.246;9.410;2024-02-23T05:29:55;3.70;;;0.50;;
69185;SDS011;56298;49.246;9.410;2024-02-23T05:32:20;5.07;;;0.53;;
69185;SDS011;56298;49.246;9.410;2024-02-23T05:34:46;3.83;;;0.43;;
69185;SDS011;56298;49.246;9.410;2024-02-23T05:37:11;4.57;;;0.60;;
69185;SDS011;56298;49.246;9.410;2024-02-23T05:39:36;4.50;;;0.40;;
69185;SDS011;56298;49.246;9.410;2024-02-23T05:42:03;4.38;;;0.50;;
69185;SDS011;56298;49.246;9.410;2024-02-23T05:44:29;6.85;;;0.50;;
69185;SDS011;56298;49.246;9.410;2024-02-23T05:46:54;4.47;;;0.47;;
69185;SDS011;56298;49.246;9.410;2024-02-23T05:49:19;4.83;;;0.37;;
69185;SDS011;56298;49.246;9.410;2024-02-23T05:51:44;4.63;;;0.50;;
69185;SDS011;56298;49.246;9.410;2024-02-23T05:54:10;3.70;;;0.50;;
69185;SDS011;56298;49.246;9.410;2024-02-23T05:56:35;3.43;;;0.50;;
69185;SDS011;56298;49.246;9.410;2024-02-23T05:59:01;4.90;;;0.65;;
69185;SDS011;56298;49.246;9.410;2024-02-23T06:01:27;3.50;;;0.70;;
69185;SDS011;56298;49.246;9.410;2024-02-23T06:03:52;3.47;;;0.50;;
69185;SDS011;56298;49.246;9.410;2024-02-23T06:06:19;4.25;;;0.60;;
69185;SDS011;56298;49.246;9.410;2024-02-23T06:08:45;4.07;;;0.80;;
69185;SDS011;56298;49.246;9.410;2024-02-23T06:11:11;5.53;;;1.48;;
69185;SDS011;56298;49.246;9.410;2024-02-23T06:13:36;6.77;;;1.63;;
69185;SDS011;56298;49.246;9.410;2024-02-23T06:16:02;7.13;;;1.73;;
69185;SDS011;56298;49.246;9.410;2024-02-23T06:18:28;7.60;;;1.98;;
69185;SDS011;56298;49.246;9.410;2024-02-23T06:20:53;8.27;;;1.80;;
69185;SDS011;56298;49.246;9.410;2024-02-23T06:23:18;5.97;;;0.90;;
69185;SDS011;56298;49.246;9.410;2024-02-23T06:25:43;5.70;;;0.70;;
69185;SDS011;56298;49.246;9.410;2024-02-23T06:28:09;5.83;;;0.80;;
69185;SDS011;56298;49.246;9.410;2024-02-23T06:30:34;4.77;;;0.90;;
69185;SDS011;56298;49.246;9.410;2024-02-23T06:32:59;5.00;;;0.80;;
69185;SDS011;56298;49.246;9.410;2024-02-23T06:35:24;6.30;;;1.30;;
69185;SDS011;56298;49.246;9.410;2024-02-23T06:37:50;5.43;;;0.80;;
69185;SDS011;56298;49.246;9.410;2024-02-23T06:40:15;4.30;;;0.93;;
69185;SDS011;56298;49.246;9.410;2024-02-23T06:42:40;4.70;;;0.90;;
69185;SDS011;56298;49.246;9.410;2024-02-23T06:45:06;6.23;;;1.60;;
69185;SDS011;56298;49.246;9.410;2024-02-23T06:47:32;5.43;;;1.27;;
69185;SDS011;56298;49.246;9.410;2024-02-23T06:50:14;5.47;;;1.07;;
69185;SDS011;56298;49.246;9.410;2024-02-23T06:52:40;5.55;;;0.70;;
69185;SDS011;56298;49.246;9.410;2024-02-23T06:55:05;4.17;;;0.57;;
69185;SDS011;56298;49.246;9.410;2024-02-23T06:57:31;4.97;;;0.60;;
69185;SDS011;56298;49.246;9.410;2024-02-23T06:59:57;5.70;;;0.80;;
69185;SDS011;56298;49.246;9.410;2024-02-23T07:02:22;5.23;;;0.60;;
69185;SDS011;56298;49.246;9.410;2024-02-23T07:04:47;5.70;;;0.70;;
69185;SDS011;56298;49.246;9.410;2024-02-23T07:07:12;5.00;;;0.67;;
69185;SDS011;56298;49.246;9.410;2024-02-23T07:09:38;5.43;;;0.87;;
69185;SDS011;56298;49.246;9.410;2024-02-23T07:12:03;5.07;;;0.73;;
69185;SDS011;56298;49.246;9.410;2024-02-23T07:14:29;3.30;;;0.50;;
69185;SDS011;56298;49.246;9.410;2024-02-23T07:16:54;5.40;;;0.60;;
69185;SDS011;56298;49.246;9.410;2024-02-23T07:19:19;5.27;;;0.70;;
69185;SDS011;56298;49.246;9.410;2024-02-23T07:21:47;4.72;;;0.70;;
69185;SDS011;56298;49.246;9.410;2024-02-23T07:24:13;4.27;;;0.70;;
69185;SDS011;56298;49.246;9.410;2024-02-23T07:26:38;4.50;;;0.57;;
69185;SDS011;56298;49.246;9.410;2024-02-23T07:29:03;4.90;;;0.67;;
69185;SDS011;56298;49.246;9.410;2024-02-23T07:31:29;6.90;;;1.13;;
69185;SDS011;56298;49.246;9.410;2024-02-23T07:36:56;6.18;;;1.10;;
69185;SDS011;56298;49.246;9.410;2024-02-23T07:39:21;5.13;;;1.13;;
69185;SDS011;56298;49.246;9.410;2024-02-23T07:41:47;5.13;;;0.70;;
69185;SDS011;56298;49.246;9.410;2024-02-23T07:44:12;4.70;;;0.83;;
69185;SDS011;56298;49.246;9.410;2024-02-23T07:46:37;5.20;;;1.17;;
69185;SDS011;56298;49.246;9.410;2024-02-23T07:49:03;7.50;;;1.47;;
69185;SDS011;56298;49.246;9.410;2024-02-23T07:51:29;4.82;;;0.90;;
69185;SDS011;56298;49.246;9.410;2024-02-23T07:53:54;5.03;;;0.83;;
69185;SDS011;56298;49.246;9.410;2024-02-23T07:56:20;5.53;;;0.80;;
69185;SDS011;56298;49.246;9.410;2024-02-23T07:58:45;3.42;;;0.65;;
69185;SDS011;56298;49.246;9.410;2024-02-23T08:01:10;4.27;;;0.50;;
69185;SDS011;56298;49.246;9.410;2024-02-23T08:03:35;5.87;;;0.70;;
69185;SDS011;56298;49.246;9.410;2024-02-23T08:06:01;6.23;;;0.70;;
69185;SDS011;56298;49.246;9.410;2024-02-23T08:08:26;3.53;;;0.50;;
69185;SDS011;56298;49.246;9.410;2024-02-23T08:10:52;4.10;;;0.60;;
69185;SDS011;56298;49.246;9.410;2024-02-23T08:13:18;4.97;;;0.70;;
69185;SDS011;56298;49.246;9.410;2024-02-23T08:15:43;4.00;;;0.63;;
69185;SDS011;56298;49.246;9.410;2024-02-23T08:18:09;5.13;;;0.70;;
69185;SDS011;56298;49.246;9.410;2024-02-23T08:20:35;5.07;;;0.93;;
69185;SDS011;56298;49.246;9.410;2024-02-23T08:23:00;6.18;;;0.70;;
69185;SDS011;56298;49.246;9.410;2024-02-23T08:25:26;6.23;;;1.50;;
69185;SDS011;56298;49.246;9.410;2024-02-23T08:27:53;13.23;;;4.30;;
69185;SDS011;56298;49.246;9.410;2024-02-23T08:30:19;17.97;;;4.83;;
69185;SDS011;56298;49.246;9.410;2024-02-23T08:32:45;17.67;;;6.20;;
69185;SDS011;56298;49.246;9.410;2024-02-23T08:35:10;5.73;;;1.00;;
69185;SDS011;56298;49.246;9.410;2024-02-23T08:37:35;5.80;;;1.00;;
69185;SDS011;56298;49.246;9.410;2024-02-23T08:40:01;5.73;;;0.97;;
69185;SDS011;56298;49.246;9.410;2024-02-23T08:42:26;5.70;;;0.90;;
69185;SDS011;56298;49.246;9.410;2024-02-23T08:44:51;3.80;;;0.68;;
69185;SDS011;56298;49.246;9.410;2024-02-23T08:47:19;5.55;;;1.23;;
69185;SDS011;56298;49.246;9.410;2024-02-23T08:49:44;6.83;;;1.43;;
69185;SDS011;56298;49.246;9.410;2024-02-23T08:52:09;6.63;;;1.50;;
69185;SDS011;56298;49.246;9.410;2024-02-23T08:54:34;5.87;;;1.33;;
69185;SDS011;56298;49.246;9.410;2024-02-23T08:57:00;12.53;;;5.60;;
69185;SDS011;56298;49.246;9.410;2024-02-23T08:59:25;22.97;;;10.43;;
69185;SDS011;56298;49.246;9.410;2024-02-23T09:01:50;21.23;;;10.23;;
69185;SDS011;56298;49.246;9.410;2024-02-23T09:04:15;11.50;;;5.40;;
69185;SDS011;56298;49.246;9.410;2024-02-23T09:06:41;10.80;;;3.10;;
69185;SDS011;56298;49.246;9.410;2024-02-23T09:09:06;7.80;;;3.23;;
69185;SDS011;56298;49.246;9.410;2024-02-23T09:11:31;10.07;;;3.70;;
69185;SDS011;56298;49.246;9.410;2024-02-23T09:13:56;6.20;;;1.77;;
69185;SDS011;56298;49.246;9.410;2024-02-23T09:16:22;6.10;;;2.00;;
69185;SDS011;56298;49.246;9.410;2024-02-23T09:18:49;4.83;;;0.60;;
69185;SDS011;56298;49.246;9.410;2024-02-23T09:21:15;5.82;;;0.80;;
69185;SDS011;56298;49.246;9.410;2024-02-23T09:23:40;5.70;;;0.50;;
69185;SDS011;56298;49.246;9.410;2024-02-23T09:26:09;6.10;;;1.07;;
69185;SDS011;56298;49.246;9.410;2024-02-23T09:28:37;5.55;;;1.35;;
69185;SDS011;56298;49.246;9.410;2024-02-23T09:31:03;3.47;;;0.70;;
69185;SDS011;56298;49.246;9.410;2024-02-23T09:33:29;4.57;;;0.82;;
69185;SDS011;56298;49.246;9.410;2024-02-23T09:35:55;4.80;;;1.57;;
69185;SDS011;56298;49.246;9.410;2024-02-23T09:38:20;4.50;;;1.00;;
69185;SDS011;56298;49.246;9.410;2024-02-23T09:40:45;6.33;;;2.60;;
69185;SDS011;56298;49.246;9.410;2024-02-23T09:43:11;6.53;;;2.30;;
69185;SDS011;56298;49.246;9.410;2024-02-23T09:45:37;5.07;;;0.80;;
69185;SDS011;56298;49.246;9.410;2024-02-23T09:48:03;4.65;;;0.60;;
69185;SDS011;56298;49.246;9.410;2024-02-23T09:50:28;3.55;;;0.47;;
69185;SDS011;56298;49.246;9.410;2024-02-23T09:52:54;4.40;;;0.63;;
69185;SDS011;56298;49.246;9.410;2024-02-23T09:55:22;3.45;;;0.60;;
69185;SDS011;56298;49.246;9.410;2024-02-23T09:57:48;3.87;;;0.57;;
69185;SDS011;56298;49.246;9.410;2024-02-23T10:00:16;4.07;;;0.50;;
69185;SDS011;56298;49.246;9.410;2024-02-23T10:02:42;10.50;;;6.77;;
69185;SDS011;56298;49.246;9.410;2024-02-23T10:05:08;4.60;;;0.68;;
69185;SDS011;56298;49.246;9.410;2024-02-23T10:07:35;3.95;;;0.68;;
69185;SDS011;56298;49.246;9.410;2024-02-23T10:10:01;3.80;;;0.50;;
69185;SDS011;56298;49.246;9.410;2024-02-23T10:12:26;5.07;;;0.50;;
69185;SDS011;56298;49.246;9.410;2024-02-23T10:14:51;4.67;;;0.50;;
69185;SDS011;56298;49.246;9.410;2024-02-23T10:17:18;4.28;;;0.68;;
69185;SDS011;56298;49.246;9.410;2024-02-23T10:19:44;4.03;;;0.50;;
69185;SDS011;56298;49.246;9.410;2024-02-23T10:22:10;3.83;;;0.60;;
69185;SDS011;56298;49.246;9.410;2024-02-23T10:24:36;4.38;;;0.52;;
69185;SDS011;56298;49.246;9.410;2024-02-23T10:27:02;3.60;;;0.60;;
69185;SDS011;56298;49.246;9.410;2024-02-23T10:29:27;4.47;;;0.60;;
69185;SDS011;56298;49.246;9.410;2024-02-23T10:31:53;3.93;;;0.47;;
69185;SDS011;56298;49.246;9.410;2024-02-23T10:34:21;4.23;;;0.50;;
69185;SDS011;56298;49.246;9.410;2024-02-23T10:36:49;6.38;;;0.80;;
69185;SDS011;56298;49.246;9.410;2024-02-23T10:39:15;6.33;;;0.80;;
69185;SDS011;56298;49.246;9.410;2024-02-23T10:41:46;7.22;;;1.10;;
69185;SDS011;56298;49.246;9.410;2024-02-23T10:44:16;4.85;;;0.75;;
69185;SDS011;56298;49.246;9.410;2024-02-23T10:46:43;5.63;;;0.63;;
69185;SDS011;56298;49.246;9.410;2024-02-23T10:49:09;3.70;;;0.63;;
69185;SDS011;56298;49.246;9.410;2024-02-23T10:51:37;5.23;;;0.80;;
69185;SDS011;56298;49.246;9.410;2024-02-23T10:54:04;5.97;;;0.80;;
69185;SDS011;56298;49.246;9.410;2024-02-23T10:56:31;6.43;;;0.68;;
69185;SDS011;56298;49.246;9.410;2024-02-23T10:58:56;4.83;;;0.77;;
69185;SDS011;56298;49.246;9.410;2024-02-23T11:01:21;4.63;;;0.50;;
69185;SDS011;56298;49.246;9.410;2024-02-23T11:03:49;3.27;;;0.50;;
69185;SDS011;56298;49.246;9.410;2024-02-23T11:06:16;5.65;;;1.00;;
69185;SDS011;56298;49.246;9.410;2024-02-23T11:08:45;3.78;;;0.60;;
69185;SDS011;56298;49.246;9.410;2024-02-23T11:11:11;3.30;;;0.50;;
69185;SDS011;56298;49.246;9.410;2024-02-23T11:13:38;4.30;;;0.50;;
69185;SDS011;56298;49.246;9.410;2024-02-23T11:16:05;3.47;;;0.50;;
69185;SDS011;56298;49.246;9.410;2024-02-23T11:18:32;3.80;;;0.52;;
69185;SDS011;56298;49.246;9.410;2024-02-23T11:21:00;4.72;;;0.60;;
69185;SDS011;56298;49.246;9.410;2024-02-23T11:23:27;4.75;;;0.68;;
69185;SDS011;56298;49.246;9.410;2024-02-23T11:26:05;3.63;;;0.60;;
69185;SDS011;56298;49.246;9.410;2024-02-23T11:28:41;4.07;;;0.70;;
69185;SDS011;56298;49.246;9.410;2024-02-23T11:31:14;4.33;;;0.67;;
69185;SDS011;56298;49.246;9.410;2024-02-23T11:33:40;5.28;;;0.70;;
69185;SDS011;56298;49.246;9.410;2024-02-23T11:36:13;4.37;;;0.60;;
69185;SDS011;56298;49.246;9.410;2024-02-23T11:38:47;5.68;;;0.70;;
69185;SDS011;56298;49.246;9.410;2024-02-23T11:41:12;4.30;;;0.60;;
69185;SDS011;56298;49.246;9.410;2024-02-23T11:43:38;6.28;;;1.60;;
69185;SDS011;56298;49.246;9.410;2024-02-23T11:46:04;4.60;;;0.88;;
69185;SDS011;56298;49.246;9.410;2024-02-23T11:48:30;4.70;;;0.70;;
69185;SDS011;56298;49.246;9.410;2024-02-23T11:50:55;5.27;;;0.87;;
69185;SDS011;56298;49.246;9.410;2024-02-23T11:53:21;5.63;;;0.70;;
69185;SDS011;56298;49.246;9.410;2024-02-23T11:55:49;3.63;;;0.50;;
69185;SDS011;56298;49.246;9.410;2024-02-23T11:58:15;3.13;;;0.52;;
69185;SDS011;56298;49.246;9.410;2024-02-23T12:00:40;5.97;;;0.63;;
69185;SDS011;56298;49.246;9.410;2024-02-23T12:03:05;4.17;;;0.73;;
69185;SDS011;56298;49.246;9.410;2024-02-23T12:05:32;3.80;;;0.60;;
69185;SDS011;56298;49.246;9.410;2024-02-23T12:07:57;5.17;;;0.67;;
69185;SDS011;56298;49.246;9.410;2024-02-23T12:10:23;4.68;;;0.65;;
69185;SDS011;56298;49.246;9.410;2024-02-23T12:12:50;5.45;;;0.60;;
69185;SDS011;56298;49.246;9.410;2024-02-23T12:15:15;4.80;;;0.60;;
69185;SDS011;56298;49.246;9.410;2024-02-23T12:17:47;3.77;;;0.50;;
69185;SDS011;56298;49.246;9.410;2024-02-23T12:20:13;5.68;;;0.80;;
69185;SDS011;56298;49.246;9.410;2024-02-23T12:22:38;4.27;;;0.60;;
69185;SDS011;56298;49.246;9.410;2024-02-23T12:25:05;4.22;;;0.57;;
69185;SDS011;56298;49.246;9.410;2024-02-23T12:27:31;4.53;;;0.63;;
69185;SDS011;56298;49.246;9.410;2024-02-23T12:29:56;5.03;;;0.60;;
69185;SDS011;56298;49.246;9.410;2024-02-23T12:32:21;4.17;;;0.50;;
69185;SDS011;56298;49.246;9.410;2024-02-23T12:34:47;3.88;;;0.73;;
69185;SDS011;56298;49.246;9.410;2024-02-23T12:37:18;4.37;;;0.67;;
69185;SDS011;56298;49.246;9.410;2024-02-23T12:39:44;4.30;;;0.70;;
69185;SDS011;56298;49.246;9.410;2024-02-23T12:42:10;4.47;;;0.63;;
69185;SDS011;56298;49.246;9.410;2024-02-23T12:44:35;5.80;;;0.80;;
69185;SDS011;56298;49.246;9.410;2024-02-23T12:47:00;4.10;;;0.60;;
69185;SDS011;56298;49.246;9.410;2024-02-23T12:49:26;4.53;;;0.70;;
69185;SDS011;56298;49.246;9.410;2024-02-23T12:51:51;5.13;;;0.70;;
69185;SDS011;56298;49.246;9.410;2024-02-23T12:56:47;4.65;;;0.70;;
69185;SDS011;56298;49.246;9.410;2024-02-23T12:59:15;3.90;;;0.80;;
69185;SDS011;56298;49.246;9.410;2024-02-23T13:01:51;3.65;;;0.60;;
69185;SDS011;56298;49.246;9.410;2024-02-23T13:04:16;4.57;;;0.70;;
69185;SDS011;56298;49.246;9.410;2024-02-23T13:06:41;4.60;;;0.67;;
69185;SDS011;56298;49.246;9.410;2024-02-23T13:09:07;5.13;;;0.60;;
69185;SDS011;56298;49.246;9.410;2024-02-23T13:11:33;7.35;;;0.90;;
69185;SDS011;56298;49.246;9.410;2024-02-23T13:13:59;3.57;;;0.60;;
69185;SDS011;56298;49.246;9.410;2024-02-23T13:16:24;5.33;;;0.80;;
69185;SDS011;56298;49.246;9.410;2024-02-23T13:18:50;7.63;;;0.90;;
69185;SDS011;56298;49.246;9.410;2024-02-23T13:21:15;5.00;;;0.97;;
69185;SDS011;56298;49.246;9.410;2024-02-23T13:23:40;5.53;;;0.80;;
69185;SDS011;56298;49.246;9.410;2024-02-23T13:26:08;4.70;;;0.98;;
69185;SDS011;56298;49.246;9.410;2024-02-23T13:28:35;4.47;;;0.60;;
69185;SDS011;56298;49.246;9.410;2024-02-23T13:31:01;5.15;;;0.70;;
69185;SDS011;56298;49.246;9.410;2024-02-23T13:33:26;5.63;;;0.70;;
69185;SDS011;56298;49.246;9.410;2024-02-23T13:35:51;5.13;;;0.70;;
69185;SDS011;56298;49.246;9.410;2024-02-23T13:38:17;4.63;;;0.70;;
69185;SDS011;56298;49.246;9.410;2024-02-23T13:40:42;5.07;;;0.63;;
69185;SDS011;56298;49.246;9.410;2024-02-23T13:43:07;5.83;;;0.80;;
69185;SDS011;56298;49.246;9.410;2024-02-23T13:45:47;5.55;;;0.80;;
69185;SDS011;56298;49.246;9.410;2024-02-23T13:48:13;4.57;;;0.70;;
69185;SDS011;56298;49.246;9.410;2024-02-23T13:50:39;4.90;;;0.70;;
69185;SDS011;56298;49.246;9.410;2024-02-23T13:53:04;5.07;;;0.70;;
69185;SDS011;56298;49.246;9.410;2024-02-23T13:55:29;4.93;;;0.80;;
69185;SDS011;56298;49.246;9.410;2024-02-23T13:57:54;4.93;;;0.67;;
69185;SDS011;56298;49.246;9.410;2024-02-23T14:00:20;4.47;;;0.80;;
69185;SDS011;56298;49.246;9.410;2024-02-23T14:02:45;5.47;;;0.73;;
69185;SDS011;56298;49.246;9.410;2024-02-23T14:05:11;5.80;;;0.83;;
69185;SDS011;56298;49.246;9.410;2024-02-23T14:07:36;4.77;;;0.80;;
69185;SDS011;56298;49.246;9.410;2024-02-23T14:10:02;3.97;;;0.63;;
69185;SDS011;56298;49.246;9.410;2024-02-23T14:12:28;4.53;;;0.70;;
69185;SDS011;56298;49.246;9.410;2024-02-23T14:14:54;5.33;;;0.80;;
69185;SDS011;56298;49.246;9.410;2024-02-23T14:17:19;6.55;;;0.70;;
69185;SDS011;56298;49.246;9.410;2024-02-23T14:19:45;4.60;;;0.70;;
69185;SDS011;56298;49.246;9.410;2024-02-23T14:22:10;5.47;;;0.77;;
69185;SDS011;56298;49.246;9.410;2024-02-23T14:24:35;7.83;;;0.87;;
69185;SDS011;56298;49.246;9.410;2024-02-23T14:27:01;4.43;;;0.60;;
69185;SDS011;56298;49.246;9.410;2024-02-23T14:29:26;4.90;;;0.60;;
69185;SDS011;56298;49.246;9.410;2024-02-23T14:31:52;7.43;;;0.82;;
69185;SDS011;56298;49.246;9.410;2024-02-23T14:34:17;5.47;;;0.70;;
69185;SDS011;56298;49.246;9.410;2024-02-23T14:36:42;5.43;;;0.67;;
69185;SDS011;56298;49.246;9.410;2024-02-23T14:39:08;4.45;;;0.60;;
69185;SDS011;56298;49.246;9.410;2024-02-23T14:41:34;5.18;;;0.70;;
69185;SDS011;56298;49.246;9.410;2024-02-23T14:44:00;5.80;;;0.80;;
69185;SDS011;56298;49.246;9.410;2024-02-23T14:46:25;4.27;;;0.60;;